TimePDT,TemperatureF,Dew PointF,Humidity,Sea Level PressureIn,VisibilityMPH,Wind Direction,Wind SpeedMPH,Gust SpeedMPH,PrecipitationIn,Events,Conditions,WindDirDegrees,DateUTC
12:15 AM,51.8,48.2,88,30.03,10.0,SSE,5.8,-,N/A,,Mostly Cloudy,160,2012-11-02 07:15:00
12:35 AM,51.8,48.2,88,30.04,10.0,South,8.1,-,N/A,,Mostly Cloudy,170,2012-11-02 07:35:00
12:55 AM,51.8,48.2,88,30.05,9.0,South,9.2,-,N/A,,Overcast,170,2012-11-02 07:55:00
1:15 AM,51.8,48.2,88,30.05,9.0,South,6.9,-,N/A,,Overcast,180,2012-11-02 08:15:00
1:35 AM,51.8,48.2,88,30.05,10.0,South,8.1,-,N/A,,Mostly Cloudy,180,2012-11-02 08:35:00
1:55 AM,51.8,48.2,88,30.05,10.0,South,4.6,-,N/A,,Overcast,180,2012-11-02 08:55:00
2:15 AM,51.8,46.4,82,30.06,10.0,SSW,3.5,-,N/A,,Mostly Cloudy,200,2012-11-02 09:15:00
2:35 AM,51.8,46.4,82,30.06,10.0,SSW,5.8,-,N/A,,Overcast,200,2012-11-02 09:35:00
2:55 AM,50.0,46.4,87,30.06,10.0,SSW,5.8,-,N/A,,Mostly Cloudy,200,2012-11-02 09:55:00
3:15 AM,48.2,44.6,87,30.06,10.0,South,6.9,-,N/A,,Mostly Cloudy,190,2012-11-02 10:15:00
3:35 AM,48.2,44.6,87,30.06,10.0,South,5.8,-,N/A,,Scattered Clouds,190,2012-11-02 10:35:00
3:55 AM,48.2,46.4,93,30.06,7.0,South,4.6,-,N/A,,Mostly Cloudy,190,2012-11-02 10:55:00
4:15 AM,50.0,46.4,87,30.05,10.0,South,4.6,-,N/A,,Overcast,180,2012-11-02 11:15:00
4:35 AM,50.0,46.4,87,30.05,8.0,Calm,Calm,-,N/A,,Overcast,0,2012-11-02 11:35:00
4:55 AM,50.0,46.4,87,30.06,9.0,South,3.5,-,N/A,,Overcast,190,2012-11-02 11:55:00
5:15 AM,50.0,46.4,87,30.06,10.0,Calm,Calm,-,N/A,,Mostly Cloudy,0,2012-11-02 12:15:00
5:35 AM,50.0,46.4,87,30.06,10.0,South,5.8,-,N/A,,Mostly Cloudy,170,2012-11-02 12:35:00
5:55 AM,51.8,46.4,82,30.06,10.0,SSE,4.6,-,N/A,,Overcast,160,2012-11-02 12:55:00
6:15 AM,51.8,46.4,82,30.05,10.0,Calm,Calm,-,N/A,,Overcast,0,2012-11-02 13:15:00
6:35 AM,50.0,46.4,87,30.05,9.0,Calm,Calm,-,N/A,,Overcast,0,2012-11-02 13:35:00
6:55 AM,50.0,46.4,87,30.04,5.0,Calm,Calm,-,N/A,,Overcast,0,2012-11-02 13:55:00
7:15 AM,50.0,46.4,87,30.03,1.8,Calm,Calm,-,N/A,,Overcast,0,2012-11-02 14:15:00
7:35 AM,48.2,46.4,93,30.04,0.5,Calm,Calm,-,N/A,,Overcast,0,2012-11-02 14:35:00
7:55 AM,50.0,46.4,87,30.05,0.5,Calm,Calm,-,N/A,,Overcast,0,2012-11-02 14:55:00
8:15 AM,48.2,46.4,93,30.04,0.5,Calm,Calm,-,N/A,,Overcast,0,2012-11-02 15:15:00
8:35 AM,48.2,44.6,87,30.04,0.2,Calm,Calm,-,N/A,,Overcast,0,2012-11-02 15:35:00
8:55 AM,48.2,46.4,93,30.04,4.0,Calm,Calm,-,N/A,,Mostly Cloudy,0,2012-11-02 15:55:00
9:15 AM,50.0,46.4,87,30.05,6.0,Calm,Calm,-,N/A,,Mostly Cloudy,0,2012-11-02 16:15:00
9:35 AM,51.8,46.4,82,30.05,5.0,Calm,Calm,-,N/A,,Overcast,0,2012-11-02 16:35:00
9:55 AM,51.8,48.2,88,30.04,8.0,Calm,Calm,-,N/A,,Scattered Clouds,0,2012-11-02 16:55:00
10:15 AM,51.8,48.2,88,30.06,10.0,SSW,5.8,-,N/A,,Mostly Cloudy,210,2012-11-02 17:15:00
10:35 AM,53.6,48.2,82,30.05,10.0,South,6.9,-,N/A,,Mostly Cloudy,190,2012-11-02 17:35:00
10:55 AM,53.6,48.2,82,30.06,10.0,SSW,5.8,-,N/A,,Mostly Cloudy,200,2012-11-02 17:55:00
11:15 AM,53.6,48.2,82,30.04,10.0,SSW,5.8,-,N/A,,Mostly Cloudy,210,2012-11-02 18:15:00
11:35 AM,53.6,48.2,82,30.06,10.0,SSW,5.8,-,N/A,,Mostly Cloudy,200,2012-11-02 18:35:00
11:55 AM,55.4,48.2,77,30.05,10.0,SW,4.6,-,N/A,,Mostly Cloudy,220,2012-11-02 18:55:00
12:15 PM,53.6,48.2,82,30.04,10.0,Calm,Calm,-,N/A,,Mostly Cloudy,0,2012-11-02 19:15:00
12:35 PM,55.4,48.2,77,30.05,10.0,South,3.5,-,N/A,,Overcast,190,2012-11-02 19:35:00
12:55 PM,55.4,48.2,77,30.04,10.0,South,4.6,-,N/A,,Mostly Cloudy,190,2012-11-02 19:55:00
1:15 PM,55.4,48.2,77,30.02,10.0,SSW,3.5,-,N/A,,Partly Cloudy,200,2012-11-02 20:15:00
1:35 PM,55.4,48.2,77,30.00,10.0,Calm,Calm,-,N/A,,Clear,0,2012-11-02 20:35:00
1:55 PM,57.2,48.2,72,30.01,10.0,Calm,Calm,-,N/A,,Scattered Clouds,0,2012-11-02 20:55:00
2:15 PM,55.4,48.2,77,30.00,10.0,SSE,4.6,-,N/A,,Mostly Cloudy,160,2012-11-02 21:15:00
2:35 PM,55.4,48.2,77,30.00,9.0,SSE,4.6,-,N/A,,Scattered Clouds,160,2012-11-02 21:35:00
2:55 PM,55.4,48.2,77,30.00,10.0,South,3.5,-,N/A,,Scattered Clouds,170,2012-11-02 21:55:00
3:15 PM,55.4,48.2,77,30.01,10.0,SSE,3.5,-,N/A,,Scattered Clouds,160,2012-11-02 22:15:00
3:35 PM,55.4,48.2,77,30.02,10.0,South,3.5,-,N/A,,Mostly Cloudy,180,2012-11-02 22:35:00
3:55 PM,53.6,48.2,82,30.02,10.0,South,3.5,-,N/A,,Mostly Cloudy,190,2012-11-02 22:55:00
4:15 PM,53.6,50.0,88,30.02,10.0,SSW,5.8,-,N/A,,Overcast,200,2012-11-02 23:15:00
4:35 PM,53.6,48.2,82,30.00,10.0,Calm,Calm,-,0.01,,Overcast,0,2012-11-02 23:35:00
4:55 PM,53.6,48.2,82,30.01,10.0,SSW,3.5,-,0.02,,Overcast,200,2012-11-02 23:55:00
5:15 PM,53.6,48.2,82,30.01,9.0,Calm,Calm,-,N/A,,Overcast,0,2012-11-03 00:15:00
5:35 PM,53.6,48.2,82,30.01,9.0,South,3.5,-,0.01,,Overcast,170,2012-11-03 00:35:00
5:55 PM,53.6,48.2,82,30.01,10.0,South,3.5,-,0.02,,Mostly Cloudy,180,2012-11-03 00:55:00
6:15 PM,51.8,48.2,88,30.01,10.0,Calm,Calm,-,N/A,,Overcast,0,2012-11-03 01:15:00
6:35 PM,51.8,48.2,88,30.00,10.0,Calm,Calm,-,N/A,,Overcast,0,2012-11-03 01:35:00
6:55 PM,51.8,48.2,88,30.01,5.0,Calm,Calm,-,N/A,,Overcast,0,2012-11-03 01:55:00
7:15 PM,51.8,48.2,88,30.02,10.0,SW,4.6,-,N/A,,Overcast,230,2012-11-03 02:15:00
7:35 PM,51.8,48.2,88,30.02,10.0,West,4.6,-,N/A,,Overcast,260,2012-11-03 02:35:00
7:55 PM,51.8,48.2,88,30.01,10.0,West,3.5,-,N/A,,Overcast,260,2012-11-03 02:55:00
8:15 PM,51.8,46.4,82,30.01,8.0,SW,3.5,-,0.01,,Overcast,230,2012-11-03 03:15:00
8:35 PM,51.8,46.4,82,30.01,5.0,WSW,3.5,-,0.02,,Mostly Cloudy,240,2012-11-03 03:35:00
8:55 PM,51.8,46.4,82,30.01,5.0,WSW,5.8,-,0.03,,Overcast,250,2012-11-03 03:55:00
9:15 PM,51.8,46.4,82,30.01,7.0,Calm,Calm,-,0.02,,Mostly Cloudy,0,2012-11-03 04:15:00
9:35 PM,51.8,46.4,82,30.01,10.0,West,3.5,-,0.03,,Overcast,260,2012-11-03 04:35:00
9:55 PM,51.8,46.4,82,30.01,10.0,Calm,Calm,-,0.04,,Overcast,0,2012-11-03 04:55:00
10:15 PM,51.8,46.4,82,30.01,8.0,WSW,4.6,-,N/A,,Overcast,250,2012-11-03 05:15:00
10:35 PM,50.0,46.4,87,30.01,9.0,Calm,Calm,-,0.02,,Overcast,0,2012-11-03 05:35:00
10:55 PM,50.0,46.4,87,30.00,8.0,Calm,Calm,-,0.03,,Overcast,0,2012-11-03 05:55:00
11:15 PM,50.0,46.4,87,30.01,10.0,Calm,Calm,-,0.01,,Overcast,0,2012-11-03 06:15:00
11:35 PM,50.0,46.4,87,30.01,5.0,WSW,4.6,-,0.02,,Overcast,240,2012-11-03 06:35:00
11:55 PM,50.0,46.4,87,30.01,5.0,Calm,Calm,-,0.02,,Overcast,0,2012-11-03 06:55:00